Thorhult, Minnesota
Current Conditions -  °F | °C
As of 4:34 AM on Monday 20 Oct 2014 (Local Time) from KVWU Reporting Station
Clear Clear  
Wind Chill: 39°   Ceiling: Unl
Heat Index: 43°   Visibility: 10mi
Dew Point: 39°   Wind: 7mph
Humidity: 87%   Direction: 310°NW
Pressure: 29.94"   Gusts: NA
Location:  48.23°N, 95.25°W
Report Text: KVWU 200934Z AUTO 31006KT 10SM CLR 06/04 A2994 RMK AO2
Loading
Personal Weather Stations






























Interactive Weather Map
Tropical Storm Tracking
New forecast layout! Learn more

10-Day Weather Forecast

Advertisements
Track Severe Weather on mobile